sensor_id;sensor_type;location;lat;lon;timestamp;P1;durP1;ratioP1;P2;durP2;ratioP2
67528;SDS011;54366;51.980;5.856;2023-12-20T00:00:03;2.95;;;0.90;;
67528;SDS011;54366;51.980;5.856;2023-12-20T00:02:30;3.17;;;0.75;;
67528;SDS011;54366;51.980;5.856;2023-12-20T00:04:56;4.35;;;0.98;;
67528;SDS011;54366;51.980;5.856;2023-12-20T00:07:23;2.17;;;0.73;;
67528;SDS011;54366;51.980;5.856;2023-12-20T00:09:49;2.78;;;0.80;;
67528;SDS011;54366;51.980;5.856;2023-12-20T00:12:15;2.72;;;0.82;;
67528;SDS011;54366;51.980;5.856;2023-12-20T00:14:41;2.88;;;0.85;;
67528;SDS011;54366;51.980;5.856;2023-12-20T00:17:08;2.95;;;0.80;;
67528;SDS011;54366;51.980;5.856;2023-12-20T00:19:34;2.13;;;0.68;;
67528;SDS011;54366;51.980;5.856;2023-12-20T00:22:00;4.10;;;1.10;;
67528;SDS011;54366;51.980;5.856;2023-12-20T00:24:27;5.47;;;1.20;;
67528;SDS011;54366;51.980;5.856;2023-12-20T00:26:53;3.97;;;1.40;;
67528;SDS011;54366;51.980;5.856;2023-12-20T00:29:19;3.92;;;1.27;;
67528;SDS011;54366;51.980;5.856;2023-12-20T00:31:46;3.05;;;1.10;;
67528;SDS011;54366;51.980;5.856;2023-12-20T00:34:12;3.22;;;1.40;;
67528;SDS011;54366;51.980;5.856;2023-12-20T00:36:38;5.70;;;1.48;;
67528;SDS011;54366;51.980;5.856;2023-12-20T00:39:05;3.45;;;1.50;;
67528;SDS011;54366;51.980;5.856;2023-12-20T00:41:32;6.22;;;1.73;;
67528;SDS011;54366;51.980;5.856;2023-12-20T00:43:58;6.38;;;1.25;;
67528;SDS011;54366;51.980;5.856;2023-12-20T00:46:25;8.05;;;1.80;;
67528;SDS011;54366;51.980;5.856;2023-12-20T00:48:51;5.20;;;1.70;;
67528;SDS011;54366;51.980;5.856;2023-12-20T00:51:17;6.07;;;1.25;;
67528;SDS011;54366;51.980;5.856;2023-12-20T00:53:44;6.30;;;1.42;;
67528;SDS011;54366;51.980;5.856;2023-12-20T00:56:11;4.47;;;1.40;;
67528;SDS011;54366;51.980;5.856;2023-12-20T00:58:38;5.40;;;1.33;;
67528;SDS011;54366;51.980;5.856;2023-12-20T01:01:04;5.35;;;1.38;;
67528;SDS011;54366;51.980;5.856;2023-12-20T01:03:30;5.55;;;1.30;;
67528;SDS011;54366;51.980;5.856;2023-12-20T01:05:56;4.47;;;0.90;;
67528;SDS011;54366;51.980;5.856;2023-12-20T01:08:23;2.60;;;0.93;;
67528;SDS011;54366;51.980;5.856;2023-12-20T01:10:49;2.58;;;1.23;;
67528;SDS011;54366;51.980;5.856;2023-12-20T01:13:15;3.33;;;1.15;;
67528;SDS011;54366;51.980;5.856;2023-12-20T01:15:42;3.85;;;1.33;;
67528;SDS011;54366;51.980;5.856;2023-12-20T01:18:08;4.28;;;1.40;;
67528;SDS011;54366;51.980;5.856;2023-12-20T01:20:34;4.28;;;1.67;;
67528;SDS011;54366;51.980;5.856;2023-12-20T01:23:00;4.82;;;1.40;;
67528;SDS011;54366;51.980;5.856;2023-12-20T01:25:27;5.30;;;1.90;;
67528;SDS011;54366;51.980;5.856;2023-12-20T01:27:53;4.97;;;1.98;;
67528;SDS011;54366;51.980;5.856;2023-12-20T01:30:19;5.15;;;1.60;;
67528;SDS011;54366;51.980;5.856;2023-12-20T01:32:45;4.40;;;1.95;;
67528;SDS011;54366;51.980;5.856;2023-12-20T01:35:12;5.95;;;2.00;;
67528;SDS011;54366;51.980;5.856;2023-12-20T01:37:39;7.13;;;2.38;;
67528;SDS011;54366;51.980;5.856;2023-12-20T01:40:05;7.38;;;2.35;;
67528;SDS011;54366;51.980;5.856;2023-12-20T01:42:33;4.38;;;1.85;;
67528;SDS011;54366;51.980;5.856;2023-12-20T01:44:59;5.22;;;1.67;;
67528;SDS011;54366;51.980;5.856;2023-12-20T01:47:26;4.90;;;1.60;;
67528;SDS011;54366;51.980;5.856;2023-12-20T01:49:52;4.63;;;1.65;;
67528;SDS011;54366;51.980;5.856;2023-12-20T01:52:19;7.05;;;1.92;;
67528;SDS011;54366;51.980;5.856;2023-12-20T01:54:46;3.20;;;1.50;;
67528;SDS011;54366;51.980;5.856;2023-12-20T01:57:13;5.85;;;1.60;;
67528;SDS011;54366;51.980;5.856;2023-12-20T01:59:40;3.60;;;1.63;;
67528;SDS011;54366;51.980;5.856;2023-12-20T02:02:06;4.47;;;1.40;;
67528;SDS011;54366;51.980;5.856;2023-12-20T02:04:33;5.95;;;1.60;;
67528;SDS011;54366;51.980;5.856;2023-12-20T02:07:00;2.55;;;1.02;;
67528;SDS011;54366;51.980;5.856;2023-12-20T02:09:27;6.05;;;1.30;;
67528;SDS011;54366;51.980;5.856;2023-12-20T02:11:55;4.15;;;1.25;;
67528;SDS011;54366;51.980;5.856;2023-12-20T02:14:21;5.38;;;1.40;;
67528;SDS011;54366;51.980;5.856;2023-12-20T02:16:48;3.53;;;1.15;;
67528;SDS011;54366;51.980;5.856;2023-12-20T02:19:14;5.88;;;1.60;;
67528;SDS011;54366;51.980;5.856;2023-12-20T02:21:43;5.22;;;1.48;;
67528;SDS011;54366;51.980;5.856;2023-12-20T02:24:09;5.32;;;1.50;;
67528;SDS011;54366;51.980;5.856;2023-12-20T02:26:35;3.28;;;1.15;;
67528;SDS011;54366;51.980;5.856;2023-12-20T02:29:02;7.55;;;1.80;;
67528;SDS011;54366;51.980;5.856;2023-12-20T02:31:28;5.75;;;1.60;;
67528;SDS011;54366;51.980;5.856;2023-12-20T02:33:54;3.55;;;1.40;;
67528;SDS011;54366;51.980;5.856;2023-12-20T02:36:20;4.35;;;1.17;;
67528;SDS011;54366;51.980;5.856;2023-12-20T02:38:47;5.28;;;1.00;;
67528;SDS011;54366;51.980;5.856;2023-12-20T02:41:13;2.47;;;0.73;;
67528;SDS011;54366;51.980;5.856;2023-12-20T02:43:42;8.48;;;1.77;;
67528;SDS011;54366;51.980;5.856;2023-12-20T02:46:08;6.63;;;1.50;;
67528;SDS011;54366;51.980;5.856;2023-12-20T02:48:34;4.05;;;1.30;;
67528;SDS011;54366;51.980;5.856;2023-12-20T02:51:01;4.82;;;1.35;;
67528;SDS011;54366;51.980;5.856;2023-12-20T02:55:53;3.75;;;1.05;;
67528;SDS011;54366;51.980;5.856;2023-12-20T02:58:19;4.97;;;1.40;;
67528;SDS011;54366;51.980;5.856;2023-12-20T03:00:46;6.95;;;1.85;;
67528;SDS011;54366;51.980;5.856;2023-12-20T03:03:12;6.30;;;1.90;;
67528;SDS011;54366;51.980;5.856;2023-12-20T03:05:38;4.72;;;1.52;;
67528;SDS011;54366;51.980;5.856;2023-12-20T03:08:05;3.97;;;1.15;;
67528;SDS011;54366;51.980;5.856;2023-12-20T03:10:31;8.82;;;1.77;;
67528;SDS011;54366;51.980;5.856;2023-12-20T03:12:57;10.07;;;2.30;;
67528;SDS011;54366;51.980;5.856;2023-12-20T03:15:24;10.35;;;2.17;;
67528;SDS011;54366;51.980;5.856;2023-12-20T03:17:50;7.70;;;2.08;;
67528;SDS011;54366;51.980;5.856;2023-12-20T03:20:16;5.28;;;1.60;;
67528;SDS011;54366;51.980;5.856;2023-12-20T03:22:43;3.60;;;1.13;;
67528;SDS011;54366;51.980;5.856;2023-12-20T03:25:09;9.60;;;1.85;;
67528;SDS011;54366;51.980;5.856;2023-12-20T03:27:38;8.02;;;2.05;;
67528;SDS011;54366;51.980;5.856;2023-12-20T03:30:05;7.05;;;1.80;;
67528;SDS011;54366;51.980;5.856;2023-12-20T03:32:32;3.83;;;1.50;;
67528;SDS011;54366;51.980;5.856;2023-12-20T03:34:58;3.70;;;1.10;;
67528;SDS011;54366;51.980;5.856;2023-12-20T03:37:24;5.20;;;1.58;;
67528;SDS011;54366;51.980;5.856;2023-12-20T03:39:51;7.55;;;1.48;;
67528;SDS011;54366;51.980;5.856;2023-12-20T03:42:17;8.05;;;1.55;;
67528;SDS011;54366;51.980;5.856;2023-12-20T03:44:43;7.18;;;1.55;;
67528;SDS011;54366;51.980;5.856;2023-12-20T03:47:09;6.03;;;1.60;;
67528;SDS011;54366;51.980;5.856;2023-12-20T03:49:36;3.95;;;1.40;;
67528;SDS011;54366;51.980;5.856;2023-12-20T03:52:02;7.55;;;1.60;;
67528;SDS011;54366;51.980;5.856;2023-12-20T03:54:29;6.13;;;1.67;;
67528;SDS011;54366;51.980;5.856;2023-12-20T03:56:55;5.45;;;1.38;;
67528;SDS011;54366;51.980;5.856;2023-12-20T03:59:22;5.03;;;1.30;;
67528;SDS011;54366;51.980;5.856;2023-12-20T04:01:48;3.65;;;1.13;;
67528;SDS011;54366;51.980;5.856;2023-12-20T04:04:14;6.93;;;1.50;;
67528;SDS011;54366;51.980;5.856;2023-12-20T04:06:40;7.50;;;1.80;;
67528;SDS011;54366;51.980;5.856;2023-12-20T04:09:07;7.47;;;1.70;;
67528;SDS011;54366;51.980;5.856;2023-12-20T04:11:34;9.15;;;1.75;;
67528;SDS011;54366;51.980;5.856;2023-12-20T04:14:02;9.15;;;2.15;;
67528;SDS011;54366;51.980;5.856;2023-12-20T04:16:28;7.78;;;2.10;;
67528;SDS011;54366;51.980;5.856;2023-12-20T04:18:54;4.93;;;1.50;;
67528;SDS011;54366;51.980;5.856;2023-12-20T04:21:20;4.93;;;1.30;;
67528;SDS011;54366;51.980;5.856;2023-12-20T04:23:47;5.45;;;1.60;;
67528;SDS011;54366;51.980;5.856;2023-12-20T04:26:13;5.43;;;1.42;;
67528;SDS011;54366;51.980;5.856;2023-12-20T04:28:39;5.13;;;1.08;;
67528;SDS011;54366;51.980;5.856;2023-12-20T04:31:06;8.98;;;2.40;;
67528;SDS011;54366;51.980;5.856;2023-12-20T04:33:32;6.88;;;1.67;;
67528;SDS011;54366;51.980;5.856;2023-12-20T04:35:58;7.97;;;1.60;;
67528;SDS011;54366;51.980;5.856;2023-12-20T04:38:25;7.50;;;1.67;;
67528;SDS011;54366;51.980;5.856;2023-12-20T04:40:52;11.55;;;2.40;;
67528;SDS011;54366;51.980;5.856;2023-12-20T04:43:18;6.70;;;1.75;;
67528;SDS011;54366;51.980;5.856;2023-12-20T04:45:44;9.35;;;2.08;;
67528;SDS011;54366;51.980;5.856;2023-12-20T04:48:11;6.07;;;1.88;;
67528;SDS011;54366;51.980;5.856;2023-12-20T04:50:38;9.50;;;2.13;;
67528;SDS011;54366;51.980;5.856;2023-12-20T04:53:04;9.15;;;2.13;;
67528;SDS011;54366;51.980;5.856;2023-12-20T04:55:30;9.30;;;1.73;;
67528;SDS011;54366;51.980;5.856;2023-12-20T04:57:57;9.80;;;2.45;;
67528;SDS011;54366;51.980;5.856;2023-12-20T05:00:23;13.90;;;2.55;;
67528;SDS011;54366;51.980;5.856;2023-12-20T05:02:49;6.10;;;2.13;;
67528;SDS011;54366;51.980;5.856;2023-12-20T05:05:15;7.30;;;1.60;;
67528;SDS011;54366;51.980;5.856;2023-12-20T05:07:43;8.88;;;1.88;;
67528;SDS011;54366;51.980;5.856;2023-12-20T05:10:10;6.88;;;1.83;;
67528;SDS011;54366;51.980;5.856;2023-12-20T05:12:36;10.20;;;1.95;;
67528;SDS011;54366;51.980;5.856;2023-12-20T05:15:02;10.88;;;2.10;;
67528;SDS011;54366;51.980;5.856;2023-12-20T05:17:30;6.82;;;1.60;;
67528;SDS011;54366;51.980;5.856;2023-12-20T05:19:56;12.60;;;2.78;;
67528;SDS011;54366;51.980;5.856;2023-12-20T05:22:23;8.95;;;2.28;;
67528;SDS011;54366;51.980;5.856;2023-12-20T05:24:49;13.27;;;2.75;;
67528;SDS011;54366;51.980;5.856;2023-12-20T05:27:15;7.72;;;2.13;;
67528;SDS011;54366;51.980;5.856;2023-12-20T05:29:42;9.00;;;1.92;;
67528;SDS011;54366;51.980;5.856;2023-12-20T05:32:08;8.93;;;2.35;;
67528;SDS011;54366;51.980;5.856;2023-12-20T05:34:34;8.18;;;2.22;;
67528;SDS011;54366;51.980;5.856;2023-12-20T05:37:00;8.00;;;1.83;;
67528;SDS011;54366;51.980;5.856;2023-12-20T05:39:27;8.43;;;2.13;;
67528;SDS011;54366;51.980;5.856;2023-12-20T05:41:53;8.35;;;2.08;;
67528;SDS011;54366;51.980;5.856;2023-12-20T05:44:20;8.88;;;2.13;;
67528;SDS011;54366;51.980;5.856;2023-12-20T05:46:46;11.27;;;2.22;;
67528;SDS011;54366;51.980;5.856;2023-12-20T05:49:12;8.10;;;1.98;;
67528;SDS011;54366;51.980;5.856;2023-12-20T05:51:39;9.27;;;1.90;;
67528;SDS011;54366;51.980;5.856;2023-12-20T05:54:05;9.13;;;2.42;;
67528;SDS011;54366;51.980;5.856;2023-12-20T05:56:33;5.30;;;1.77;;
67528;SDS011;54366;51.980;5.856;2023-12-20T05:59:00;5.80;;;1.60;;
67528;SDS011;54366;51.980;5.856;2023-12-20T06:01:26;9.25;;;2.00;;
67528;SDS011;54366;51.980;5.856;2023-12-20T06:03:52;7.38;;;1.98;;
67528;SDS011;54366;51.980;5.856;2023-12-20T06:06:18;6.88;;;2.13;;
67528;SDS011;54366;51.980;5.856;2023-12-20T06:08:45;11.27;;;2.80;;
67528;SDS011;54366;51.980;5.856;2023-12-20T06:11:11;9.55;;;2.50;;
67528;SDS011;54366;51.980;5.856;2023-12-20T06:13:37;15.48;;;3.00;;
67528;SDS011;54366;51.980;5.856;2023-12-20T06:16:05;10.25;;;2.60;;
67528;SDS011;54366;51.980;5.856;2023-12-20T06:18:32;8.98;;;2.50;;
67528;SDS011;54366;51.980;5.856;2023-12-20T06:20:58;11.43;;;2.97;;
67528;SDS011;54366;51.980;5.856;2023-12-20T06:23:24;10.80;;;3.15;;
67528;SDS011;54366;51.980;5.856;2023-12-20T06:25:50;11.10;;;2.80;;
67528;SDS011;54366;51.980;5.856;2023-12-20T06:28:17;9.80;;;2.38;;
67528;SDS011;54366;51.980;5.856;2023-12-20T06:30:43;5.32;;;1.92;;
67528;SDS011;54366;51.980;5.856;2023-12-20T06:33:09;7.10;;;2.42;;
67528;SDS011;54366;51.980;5.856;2023-12-20T06:35:37;7.30;;;2.38;;
67528;SDS011;54366;51.980;5.856;2023-12-20T06:38:03;8.73;;;2.30;;
67528;SDS011;54366;51.980;5.856;2023-12-20T06:40:29;9.77;;;1.92;;
67528;SDS011;54366;51.980;5.856;2023-12-20T06:42:56;9.82;;;2.70;;
67528;SDS011;54366;51.980;5.856;2023-12-20T06:45:22;12.05;;;2.83;;
67528;SDS011;54366;51.980;5.856;2023-12-20T06:47:48;11.25;;;2.90;;
67528;SDS011;54366;51.980;5.856;2023-12-20T06:50:15;11.02;;;2.63;;
67528;SDS011;54366;51.980;5.856;2023-12-20T06:52:41;9.48;;;2.45;;
67528;SDS011;54366;51.980;5.856;2023-12-20T06:55:07;13.73;;;2.88;;
67528;SDS011;54366;51.980;5.856;2023-12-20T06:57:34;11.55;;;2.40;;
67528;SDS011;54366;51.980;5.856;2023-12-20T07:00:02;10.05;;;2.67;;
67528;SDS011;54366;51.980;5.856;2023-12-20T07:02:29;9.32;;;2.53;;
67528;SDS011;54366;51.980;5.856;2023-12-20T07:04:57;10.57;;;2.75;;
67528;SDS011;54366;51.980;5.856;2023-12-20T07:07:23;11.10;;;2.97;;
67528;SDS011;54366;51.980;5.856;2023-12-20T07:09:50;11.80;;;2.67;;
67528;SDS011;54366;51.980;5.856;2023-12-20T07:12:16;9.77;;;2.45;;
67528;SDS011;54366;51.980;5.856;2023-12-20T07:14:45;9.40;;;2.42;;
67528;SDS011;54366;51.980;5.856;2023-12-20T07:17:12;8.23;;;2.70;;
67528;SDS011;54366;51.980;5.856;2023-12-20T07:19:40;10.07;;;2.58;;
67528;SDS011;54366;51.980;5.856;2023-12-20T07:22:07;8.10;;;2.40;;
67528;SDS011;54366;51.980;5.856;2023-12-20T07:24:34;9.82;;;2.72;;
67528;SDS011;54366;51.980;5.856;2023-12-20T07:27:00;12.32;;;3.40;;
67528;SDS011;54366;51.980;5.856;2023-12-20T07:29:27;8.65;;;2.53;;
67528;SDS011;54366;51.980;5.856;2023-12-20T07:31:53;12.27;;;3.47;;
67528;SDS011;54366;51.980;5.856;2023-12-20T07:34:20;12.52;;;3.58;;
67528;SDS011;54366;51.980;5.856;2023-12-20T07:36:46;11.00;;;3.25;;
67528;SDS011;54366;51.980;5.856;2023-12-20T07:39:13;11.80;;;2.85;;
67528;SDS011;54366;51.980;5.856;2023-12-20T07:41:40;17.42;;;3.80;;
67528;SDS011;54366;51.980;5.856;2023-12-20T07:44:06;15.32;;;3.53;;
67528;SDS011;54366;51.980;5.856;2023-12-20T07:46:33;10.15;;;2.75;;
67528;SDS011;54366;51.980;5.856;2023-12-20T07:48:59;10.85;;;3.13;;
67528;SDS011;54366;51.980;5.856;2023-12-20T07:51:25;9.45;;;2.85;;
67528;SDS011;54366;51.980;5.856;2023-12-20T07:53:52;11.68;;;3.33;;
67528;SDS011;54366;51.980;5.856;2023-12-20T07:56:19;9.43;;;2.92;;
67528;SDS011;54366;51.980;5.856;2023-12-20T07:58:45;9.30;;;2.63;;
67528;SDS011;54366;51.980;5.856;2023-12-20T08:01:15;10.00;;;2.67;;
67528;SDS011;54366;51.980;5.856;2023-12-20T08:03:42;13.15;;;3.47;;
67528;SDS011;54366;51.980;5.856;2023-12-20T08:06:09;13.07;;;3.10;;
67528;SDS011;54366;51.980;5.856;2023-12-20T08:08:35;11.40;;;2.95;;
67528;SDS011;54366;51.980;5.856;2023-12-20T08:11:01;13.30;;;2.78;;
67528;SDS011;54366;51.980;5.856;2023-12-20T08:13:28;8.82;;;2.90;;
67528;SDS011;54366;51.980;5.856;2023-12-20T08:15:55;10.48;;;3.20;;
67528;SDS011;54366;51.980;5.856;2023-12-20T08:18:21;11.55;;;3.28;;
67528;SDS011;54366;51.980;5.856;2023-12-20T08:20:49;12.40;;;2.58;;
67528;SDS011;54366;51.980;5.856;2023-12-20T08:23:15;12.45;;;3.20;;
67528;SDS011;54366;51.980;5.856;2023-12-20T08:25:41;11.82;;;2.65;;
67528;SDS011;54366;51.980;5.856;2023-12-20T08:28:08;14.60;;;3.55;;
67528;SDS011;54366;51.980;5.856;2023-12-20T08:30:34;8.45;;;2.60;;
67528;SDS011;54366;51.980;5.856;2023-12-20T08:33:00;12.63;;;2.55;;
67528;SDS011;54366;51.980;5.856;2023-12-20T08:35:27;11.38;;;3.03;;
67528;SDS011;54366;51.980;5.856;2023-12-20T08:37:54;10.82;;;2.60;;
67528;SDS011;54366;51.980;5.856;2023-12-20T08:40:21;8.10;;;2.30;;
67528;SDS011;54366;51.980;5.856;2023-12-20T08:42:48;7.95;;;2.00;;
67528;SDS011;54366;51.980;5.856;2023-12-20T08:45:14;16.58;;;3.40;;
67528;SDS011;54366;51.980;5.856;2023-12-20T08:47:40;11.23;;;2.60;;
67528;SDS011;54366;51.980;5.856;2023-12-20T08:50:07;11.75;;;3.15;;
67528;SDS011;54366;51.980;5.856;2023-12-20T08:52:33;9.60;;;2.40;;
67528;SDS011;54366;51.980;5.856;2023-12-20T08:55:00;11.00;;;2.75;;
67528;SDS011;54366;51.980;5.856;2023-12-20T08:57:26;13.52;;;2.90;;
67528;SDS011;54366;51.980;5.856;2023-12-20T08:59:52;15.02;;;3.42;;
67528;SDS011;54366;51.980;5.856;2023-12-20T09:02:19;10.05;;;2.25;;
67528;SDS011;54366;51.980;5.856;2023-12-20T09:04:45;10.43;;;2.60;;
67528;SDS011;54366;51.980;5.856;2023-12-20T09:07:26;11.45;;;2.33;;
67528;SDS011;54366;51.980;5.856;2023-12-20T09:09:55;10.93;;;2.60;;
67528;SDS011;54366;51.980;5.856;2023-12-20T09:12:22;10.45;;;2.80;;
67528;SDS011;54366;51.980;5.856;2023-12-20T09:14:48;15.75;;;3.13;;
67528;SDS011;54366;51.980;5.856;2023-12-20T09:17:16;10.40;;;2.90;;
67528;SDS011;54366;51.980;5.856;2023-12-20T09:19:43;14.55;;;2.97;;
67528;SDS011;54366;51.980;5.856;2023-12-20T09:22:10;12.07;;;3.03;;
67528;SDS011;54366;51.980;5.856;2023-12-20T09:24:36;11.50;;;3.05;;
67528;SDS011;54366;51.980;5.856;2023-12-20T09:27:04;10.88;;;2.47;;
67528;SDS011;54366;51.980;5.856;2023-12-20T09:29:31;9.27;;;2.55;;
67528;SDS011;54366;51.980;5.856;2023-12-20T09:31:57;10.90;;;2.70;;
67528;SDS011;54366;51.980;5.856;2023-12-20T09:34:24;11.55;;;2.97;;
67528;SDS011;54366;51.980;5.856;2023-12-20T09:36:51;13.02;;;2.67;;
67528;SDS011;54366;51.980;5.856;2023-12-20T09:39:18;12.63;;;3.53;;
67528;SDS011;54366;51.980;5.856;2023-12-20T09:41:49;12.60;;;3.13;;
67528;SDS011;54366;51.980;5.856;2023-12-20T09:44:20;10.63;;;2.70;;
67528;SDS011;54366;51.980;5.856;2023-12-20T09:46:49;14.32;;;3.70;;
67528;SDS011;54366;51.980;5.856;2023-12-20T09:49:17;10.43;;;3.20;;
67528;SDS011;54366;51.980;5.856;2023-12-20T09:51:44;12.73;;;2.90;;
67528;SDS011;54366;51.980;5.856;2023-12-20T09:54:13;11.05;;;2.90;;
67528;SDS011;54366;51.980;5.856;2023-12-20T09:56:41;13.00;;;3.55;;
67528;SDS011;54366;51.980;5.856;2023-12-20T09:59:07;8.25;;;2.72;;
67528;SDS011;54366;51.980;5.856;2023-12-20T10:01:33;12.05;;;2.63;;
67528;SDS011;54366;51.980;5.856;2023-12-20T10:04:00;11.15;;;2.90;;
67528;SDS011;54366;51.980;5.856;2023-12-20T10:06:41;11.85;;;3.47;;
67528;SDS011;54366;51.980;5.856;2023-12-20T10:09:11;12.15;;;2.90;;
67528;SDS011;54366;51.980;5.856;2023-12-20T10:11:38;7.32;;;2.20;;
67528;SDS011;54366;51.980;5.856;2023-12-20T10:14:05;10.75;;;2.42;;
67528;SDS011;54366;51.980;5.856;2023-12-20T10:16:32;13.93;;;3.08;;
67528;SDS011;54366;51.980;5.856;2023-12-20T10:18:59;14.13;;;3.15;;
67528;SDS011;54366;51.980;5.856;2023-12-20T10:21:30;10.80;;;3.30;;
67528;SDS011;54366;51.980;5.856;2023-12-20T10:23:56;11.65;;;3.90;;
67528;SDS011;54366;51.980;5.856;2023-12-20T10:26:24;9.05;;;2.80;;
67528;SDS011;54366;51.980;5.856;2023-12-20T10:28:52;14.75;;;4.40;;
67528;SDS011;54366;51.980;5.856;2023-12-20T10:31:29;12.50;;;3.53;;
67528;SDS011;54366;51.980;5.856;2023-12-20T10:33:57;11.05;;;3.38;;
67528;SDS011;54366;51.980;5.856;2023-12-20T10:36:33;8.38;;;2.20;;
67528;SDS011;54366;51.980;5.856;2023-12-20T10:39:02;9.02;;;2.60;;
67528;SDS011;54366;51.980;5.856;2023-12-20T10:41:32;7.28;;;2.58;;
67528;SDS011;54366;51.980;5.856;2023-12-20T10:43:59;7.35;;;2.13;;
67528;SDS011;54366;51.980;5.856;2023-12-20T10:46:27;5.93;;;1.83;;
67528;SDS011;54366;51.980;5.856;2023-12-20T10:48:58;9.00;;;2.10;;
67528;SDS011;54366;51.980;5.856;2023-12-20T10:51:27;6.22;;;1.73;;
67528;SDS011;54366;51.980;5.856;2023-12-20T10:53:55;8.95;;;2.33;;
67528;SDS011;54366;51.980;5.856;2023-12-20T10:56:22;8.75;;;2.47;;
67528;SDS011;54366;51.980;5.856;2023-12-20T10:58:52;8.63;;;2.03;;
67528;SDS011;54366;51.980;5.856;2023-12-20T11:01:18;12.95;;;2.83;;
67528;SDS011;54366;51.980;5.856;2023-12-20T11:03:49;9.05;;;2.15;;
67528;SDS011;54366;51.980;5.856;2023-12-20T11:06:27;9.75;;;2.33;;
67528;SDS011;54366;51.980;5.856;2023-12-20T11:10:10;5.50;;;1.58;;
67528;SDS011;54366;51.980;5.856;2023-12-20T11:12:14;9.02;;;2.40;;
67528;SDS011;54366;51.980;5.856;2023-12-20T11:14:47;6.22;;;1.70;;
67528;SDS011;54366;51.980;5.856;2023-12-20T11:17:28;5.65;;;1.42;;
67528;SDS011;54366;51.980;5.856;2023-12-20T11:22:39;4.75;;;1.40;;
67528;SDS011;54366;51.980;5.856;2023-12-20T11:25:17;7.30;;;2.10;;
67528;SDS011;54366;51.980;5.856;2023-12-20T11:27:44;10.93;;;3.08;;
67528;SDS011;54366;51.980;5.856;2023-12-20T11:30:40;13.25;;;4.03;;
67528;SDS011;54366;51.980;5.856;2023-12-20T11:33:14;8.23;;;2.63;;
67528;SDS011;54366;51.980;5.856;2023-12-20T11:35:41;7.43;;;2.30;;
67528;SDS011;54366;51.980;5.856;2023-12-20T11:38:08;5.60;;;1.70;;
67528;SDS011;54366;51.980;5.856;2023-12-20T11:40:35;6.45;;;1.50;;
67528;SDS011;54366;51.980;5.856;2023-12-20T11:43:02;4.43;;;1.35;;
67528;SDS011;54366;51.980;5.856;2023-12-20T11:45:30;8.05;;;2.13;;
67528;SDS011;54366;51.980;5.856;2023-12-20T11:47:57;6.53;;;2.08;;
67528;SDS011;54366;51.980;5.856;2023-12-20T11:50:24;8.32;;;2.35;;
67528;SDS011;54366;51.980;5.856;2023-12-20T11:52:51;9.38;;;2.60;;
67528;SDS011;54366;51.980;5.856;2023-12-20T11:55:19;8.50;;;2.17;;
67528;SDS011;54366;51.980;5.856;2023-12-20T11:57:45;7.38;;;1.85;;
67528;SDS011;54366;51.980;5.856;2023-12-20T12:00:12;9.00;;;2.30;;
67528;SDS011;54366;51.980;5.856;2023-12-20T12:02:39;7.68;;;1.73;;
67528;SDS011;54366;51.980;5.856;2023-12-20T12:05:06;4.75;;;1.27;;
67528;SDS011;54366;51.980;5.856;2023-12-20T12:07:33;6.93;;;1.55;;
67528;SDS011;54366;51.980;5.856;2023-12-20T12:10:00;8.52;;;2.10;;
67528;SDS011;54366;51.980;5.856;2023-12-20T12:12:26;6.30;;;1.63;;
67528;SDS011;54366;51.980;5.856;2023-12-20T12:14:54;9.48;;;1.67;;
67528;SDS011;54366;51.980;5.856;2023-12-20T12:17:22;10.13;;;1.80;;
67528;SDS011;54366;51.980;5.856;2023-12-20T12:19:48;6.55;;;1.90;;
67528;SDS011;54366;51.980;5.856;2023-12-20T12:22:15;7.28;;;1.70;;
67528;SDS011;54366;51.980;5.856;2023-12-20T12:24:43;6.57;;;1.52;;
67528;SDS011;54366;51.980;5.856;2023-12-20T12:27:09;8.25;;;1.85;;
67528;SDS011;54366;51.980;5.856;2023-12-20T12:29:37;9.70;;;2.03;;
67528;SDS011;54366;51.980;5.856;2023-12-20T12:32:05;5.75;;;1.60;;
67528;SDS011;54366;51.980;5.856;2023-12-20T12:34:33;5.25;;;1.52;;
67528;SDS011;54366;51.980;5.856;2023-12-20T12:37:00;9.68;;;2.13;;
67528;SDS011;54366;51.980;5.856;2023-12-20T12:39:27;9.32;;;1.70;;
67528;SDS011;54366;51.980;5.856;2023-12-20T12:41:55;5.97;;;1.48;;
67528;SDS011;54366;51.980;5.856;2023-12-20T12:44:23;8.52;;;2.40;;
67528;SDS011;54366;51.980;5.856;2023-12-20T12:46:50;9.25;;;2.13;;
67528;SDS011;54366;51.980;5.856;2023-12-20T12:49:19;9.57;;;2.10;;
67528;SDS011;54366;51.980;5.856;2023-12-20T12:51:47;7.63;;;2.35;;
67528;SDS011;54366;51.980;5.856;2023-12-20T12:54:14;6.32;;;2.00;;
67528;SDS011;54366;51.980;5.856;2023-12-20T12:56:42;8.55;;;2.00;;
67528;SDS011;54366;51.980;5.856;2023-12-20T12:59:09;7.93;;;1.80;;
67528;SDS011;54366;51.980;5.856;2023-12-20T13:01:35;7.78;;;1.80;;
67528;SDS011;54366;51.980;5.856;2023-12-20T13:04:02;7.22;;;1.70;;
67528;SDS011;54366;51.980;5.856;2023-12-20T13:06:32;4.45;;;1.40;;
67528;SDS011;54366;51.980;5.856;2023-12-20T13:08:58;6.22;;;1.50;;
67528;SDS011;54366;51.980;5.856;2023-12-20T13:11:25;7.68;;;2.00;;
67528;SDS011;54366;51.980;5.856;2023-12-20T13:13:51;6.05;;;1.70;;
67528;SDS011;54366;51.980;5.856;2023-12-20T13:16:17;7.35;;;1.75;;
67528;SDS011;54366;51.980;5.856;2023-12-20T13:18:43;8.55;;;2.13;;
67528;SDS011;54366;51.980;5.856;2023-12-20T13:21:10;7.03;;;1.70;;
67528;SDS011;54366;51.980;5.856;2023-12-20T13:23:36;10.15;;;2.30;;
67528;SDS011;54366;51.980;5.856;2023-12-20T13:26:02;7.90;;;1.90;;
67528;SDS011;54366;51.980;5.856;2023-12-20T13:28:29;7.72;;;2.05;;
67528;SDS011;54366;51.980;5.856;2023-12-20T13:30:55;7.32;;;1.73;;
67528;SDS011;54366;51.980;5.856;2023-12-20T13:33:21;5.15;;;1.40;;
67528;SDS011;54366;51.980;5.856;2023-12-20T13:35:47;7.28;;;1.80;;
67528;SDS011;54366;51.980;5.856;2023-12-20T13:38:14;9.98;;;2.25;;
67528;SDS011;54366;51.980;5.856;2023-12-20T13:40:40;11.05;;;2.67;;
67528;SDS011;54366;51.980;5.856;2023-12-20T13:43:06;12.30;;;2.63;;
67528;SDS011;54366;51.980;5.856;2023-12-20T13:45:33;10.05;;;1.98;;
67528;SDS011;54366;51.980;5.856;2023-12-20T13:47:59;9.95;;;2.38;;
67528;SDS011;54366;51.980;5.856;2023-12-20T13:50:25;8.20;;;2.35;;
67528;SDS011;54366;51.980;5.856;2023-12-20T13:52:53;10.32;;;2.38;;
67528;SDS011;54366;51.980;5.856;2023-12-20T13:55:19;12.93;;;2.78;;
67528;SDS011;54366;51.980;5.856;2023-12-20T13:57:47;9.80;;;2.10;;
67528;SDS011;54366;51.980;5.856;2023-12-20T14:00:14;7.43;;;1.90;;
67528;SDS011;54366;51.980;5.856;2023-12-20T14:02:41;10.93;;;2.33;;
67528;SDS011;54366;51.980;5.856;2023-12-20T14:05:11;9.10;;;2.20;;
67528;SDS011;54366;51.980;5.856;2023-12-20T14:07:37;13.13;;;2.60;;
67528;SDS011;54366;51.980;5.856;2023-12-20T14:10:03;8.90;;;1.90;;
67528;SDS011;54366;51.980;5.856;2023-12-20T14:12:31;6.82;;;1.65;;
67528;SDS011;54366;51.980;5.856;2023-12-20T14:15:01;14.80;;;2.58;;
67528;SDS011;54366;51.980;5.856;2023-12-20T14:17:27;6.82;;;1.98;;
67528;SDS011;54366;51.980;5.856;2023-12-20T14:19:54;7.93;;;1.90;;
67528;SDS011;54366;51.980;5.856;2023-12-20T14:22:20;9.05;;;2.00;;
67528;SDS011;54366;51.980;5.856;2023-12-20T14:24:46;9.00;;;2.38;;
67528;SDS011;54366;51.980;5.856;2023-12-20T14:27:13;8.57;;;1.75;;
67528;SDS011;54366;51.980;5.856;2023-12-20T14:29:39;7.18;;;1.70;;
67528;SDS011;54366;51.980;5.856;2023-12-20T14:32:06;11.95;;;2.22;;
67528;SDS011;54366;51.980;5.856;2023-12-20T14:34:32;9.98;;;2.10;;
67528;SDS011;54366;51.980;5.856;2023-12-20T14:36:58;7.90;;;2.10;;
67528;SDS011;54366;51.980;5.856;2023-12-20T14:39:24;7.50;;;1.95;;
67528;SDS011;54366;51.980;5.856;2023-12-20T14:41:51;9.73;;;2.33;;
67528;SDS011;54366;51.980;5.856;2023-12-20T14:44:17;7.35;;;2.00;;
67528;SDS011;54366;51.980;5.856;2023-12-20T14:46:43;7.47;;;1.85;;